sensor_id;sensor_type;location;lat;lon;timestamp;P1;durP1;ratioP1;P2;durP2;ratioP2
1747;SDS011;871;47.034;15.394;2023-11-21T00:00:35;38.05;;;1.30;;
1747;SDS011;871;47.034;15.394;2023-11-21T00:03:01;38.27;;;2.17;;
1747;SDS011;871;47.034;15.394;2023-11-21T00:05:28;38.28;;;1.95;;
1747;SDS011;871;47.034;15.394;2023-11-21T00:07:54;38.35;;;2.20;;
1747;SDS011;871;47.034;15.394;2023-11-21T00:10:20;37.92;;;1.27;;
1747;SDS011;871;47.034;15.394;2023-11-21T00:12:47;38.00;;;1.10;;
1747;SDS011;871;47.034;15.394;2023-11-21T00:15:13;37.85;;;1.10;;
1747;SDS011;871;47.034;15.394;2023-11-21T00:17:40;37.55;;;1.20;;
1747;SDS011;871;47.034;15.394;2023-11-21T00:20:07;38.13;;;1.63;;
1747;SDS011;871;47.034;15.394;2023-11-21T00:22:37;38.08;;;1.58;;
1747;SDS011;871;47.034;15.394;2023-11-21T00:25:03;37.95;;;1.33;;
1747;SDS011;871;47.034;15.394;2023-11-21T00:27:30;38.27;;;1.57;;
1747;SDS011;871;47.034;15.394;2023-11-21T00:29:56;38.13;;;1.20;;
1747;SDS011;871;47.034;15.394;2023-11-21T00:32:23;38.55;;;1.50;;
1747;SDS011;871;47.034;15.394;2023-11-21T00:34:49;38.22;;;1.42;;
1747;SDS011;871;47.034;15.394;2023-11-21T00:37:15;38.10;;;1.55;;
1747;SDS011;871;47.034;15.394;2023-11-21T00:39:41;37.97;;;1.10;;
1747;SDS011;871;47.034;15.394;2023-11-21T00:42:07;38.20;;;1.15;;
1747;SDS011;871;47.034;15.394;2023-11-21T00:44:33;38.60;;;1.90;;
1747;SDS011;871;47.034;15.394;2023-11-21T00:46:59;39.05;;;1.38;;
1747;SDS011;871;47.034;15.394;2023-11-21T00:49:28;38.38;;;1.27;;
1747;SDS011;871;47.034;15.394;2023-11-21T00:51:54;38.13;;;1.10;;
1747;SDS011;871;47.034;15.394;2023-11-21T00:54:20;38.42;;;1.42;;
1747;SDS011;871;47.034;15.394;2023-11-21T00:56:46;37.87;;;1.10;;
1747;SDS011;871;47.034;15.394;2023-11-21T00:59:13;37.77;;;1.00;;
1747;SDS011;871;47.034;15.394;2023-11-21T01:01:40;39.42;;;2.05;;
1747;SDS011;871;47.034;15.394;2023-11-21T01:04:06;43.63;;;2.63;;
1747;SDS011;871;47.034;15.394;2023-11-21T01:06:32;37.63;;;1.10;;
1747;SDS011;871;47.034;15.394;2023-11-21T01:08:58;38.20;;;1.45;;
1747;SDS011;871;47.034;15.394;2023-11-21T01:11:24;37.83;;;1.10;;
1747;SDS011;871;47.034;15.394;2023-11-21T01:13:51;37.92;;;1.67;;
1747;SDS011;871;47.034;15.394;2023-11-21T01:16:18;37.70;;;1.20;;
1747;SDS011;871;47.034;15.394;2023-11-21T01:18:44;37.87;;;1.63;;
1747;SDS011;871;47.034;15.394;2023-11-21T01:21:10;37.53;;;1.30;;
1747;SDS011;871;47.034;15.394;2023-11-21T01:23:37;37.67;;;1.60;;
1747;SDS011;871;47.034;15.394;2023-11-21T01:26:03;37.47;;;1.35;;
1747;SDS011;871;47.034;15.394;2023-11-21T01:28:29;37.53;;;1.20;;
1747;SDS011;871;47.034;15.394;2023-11-21T01:30:55;38.22;;;2.95;;
1747;SDS011;871;47.034;15.394;2023-11-21T01:33:21;37.50;;;1.70;;
1747;SDS011;871;47.034;15.394;2023-11-21T01:35:50;37.00;;;1.20;;
1747;SDS011;871;47.034;15.394;2023-11-21T01:38:18;37.00;;;1.63;;
1747;SDS011;871;47.034;15.394;2023-11-21T01:40:44;37.15;;;2.20;;
1747;SDS011;871;47.034;15.394;2023-11-21T01:43:10;36.78;;;1.30;;
1747;SDS011;871;47.034;15.394;2023-11-21T01:45:36;36.85;;;1.50;;
1747;SDS011;871;47.034;15.394;2023-11-21T01:48:04;36.63;;;1.70;;
1747;SDS011;871;47.034;15.394;2023-11-21T01:50:32;47.28;;;2.47;;
1747;SDS011;871;47.034;15.394;2023-11-21T01:53:01;36.85;;;1.63;;
1747;SDS011;871;47.034;15.394;2023-11-21T01:55:28;36.95;;;1.40;;
1747;SDS011;871;47.034;15.394;2023-11-21T01:57:55;36.92;;;1.33;;
1747;SDS011;871;47.034;15.394;2023-11-21T02:00:28;38.10;;;2.45;;
1747;SDS011;871;47.034;15.394;2023-11-21T02:02:54;38.00;;;2.00;;
1747;SDS011;871;47.034;15.394;2023-11-21T02:05:20;37.47;;;1.20;;
1747;SDS011;871;47.034;15.394;2023-11-21T02:07:51;37.67;;;1.40;;
1747;SDS011;871;47.034;15.394;2023-11-21T02:10:18;37.75;;;1.10;;
1747;SDS011;871;47.034;15.394;2023-11-21T02:12:48;38.07;;;1.30;;
1747;SDS011;871;47.034;15.394;2023-11-21T02:15:17;38.10;;;1.13;;
1747;SDS011;871;47.034;15.394;2023-11-21T02:17:46;37.95;;;1.20;;
1747;SDS011;871;47.034;15.394;2023-11-21T02:20:16;38.07;;;1.30;;
1747;SDS011;871;47.034;15.394;2023-11-21T02:22:43;37.80;;;1.20;;
1747;SDS011;871;47.034;15.394;2023-11-21T02:25:09;38.33;;;1.20;;
1747;SDS011;871;47.034;15.394;2023-11-21T02:27:36;38.43;;;1.20;;
1747;SDS011;871;47.034;15.394;2023-11-21T02:30:02;38.30;;;1.50;;
1747;SDS011;871;47.034;15.394;2023-11-21T02:32:30;38.53;;;1.10;;
1747;SDS011;871;47.034;15.394;2023-11-21T02:34:56;38.80;;;1.40;;
1747;SDS011;871;47.034;15.394;2023-11-21T02:37:26;38.97;;;1.47;;
1747;SDS011;871;47.034;15.394;2023-11-21T02:39:52;38.47;;;1.20;;
1747;SDS011;871;47.034;15.394;2023-11-21T02:42:18;38.83;;;1.50;;
1747;SDS011;871;47.034;15.394;2023-11-21T02:44:44;38.17;;;1.10;;
1747;SDS011;871;47.034;15.394;2023-11-21T02:47:10;38.57;;;1.27;;
1747;SDS011;871;47.034;15.394;2023-11-21T02:49:36;38.53;;;1.17;;
1747;SDS011;871;47.034;15.394;2023-11-21T02:52:04;38.53;;;1.07;;
1747;SDS011;871;47.034;15.394;2023-11-21T02:54:30;38.97;;;1.30;;
1747;SDS011;871;47.034;15.394;2023-11-21T02:56:56;38.93;;;1.20;;
1747;SDS011;871;47.034;15.394;2023-11-21T02:59:23;38.78;;;1.25;;
1747;SDS011;871;47.034;15.394;2023-11-21T03:01:49;38.30;;;1.10;;
1747;SDS011;871;47.034;15.394;2023-11-21T03:04:15;39.00;;;2.07;;
1747;SDS011;871;47.034;15.394;2023-11-21T03:06:43;38.43;;;1.20;;
1747;SDS011;871;47.034;15.394;2023-11-21T03:09:10;38.07;;;1.37;;
1747;SDS011;871;47.034;15.394;2023-11-21T03:11:37;37.97;;;1.37;;
1747;SDS011;871;47.034;15.394;2023-11-21T03:14:03;38.65;;;1.55;;
1747;SDS011;871;47.034;15.394;2023-11-21T03:16:30;39.65;;;2.15;;
1747;SDS011;871;47.034;15.394;2023-11-21T03:18:56;38.05;;;1.27;;
1747;SDS011;871;47.034;15.394;2023-11-21T03:21:22;38.10;;;1.33;;
1747;SDS011;871;47.034;15.394;2023-11-21T03:23:48;38.17;;;1.60;;
1747;SDS011;871;47.034;15.394;2023-11-21T03:26:16;37.90;;;1.27;;
1747;SDS011;871;47.034;15.394;2023-11-21T03:28:42;41.63;;;2.73;;
1747;SDS011;871;47.034;15.394;2023-11-21T03:31:09;38.07;;;1.20;;
1747;SDS011;871;47.034;15.394;2023-11-21T03:33:35;38.33;;;1.30;;
1747;SDS011;871;47.034;15.394;2023-11-21T03:36:01;39.10;;;2.27;;
1747;SDS011;871;47.034;15.394;2023-11-21T03:38:29;38.47;;;1.63;;
1747;SDS011;871;47.034;15.394;2023-11-21T03:40:55;37.60;;;1.10;;
1747;SDS011;871;47.034;15.394;2023-11-21T03:43:21;38.43;;;1.17;;
1747;SDS011;871;47.034;15.394;2023-11-21T03:45:47;38.50;;;1.30;;
1747;SDS011;871;47.034;15.394;2023-11-21T03:48:16;38.13;;;1.10;;
1747;SDS011;871;47.034;15.394;2023-11-21T03:50:42;38.77;;;1.80;;
1747;SDS011;871;47.034;15.394;2023-11-21T03:53:09;38.43;;;1.20;;
1747;SDS011;871;47.034;15.394;2023-11-21T03:55:35;39.10;;;2.03;;
1747;SDS011;871;47.034;15.394;2023-11-21T03:58:01;39.10;;;2.33;;
1747;SDS011;871;47.034;15.394;2023-11-21T04:00:28;38.43;;;1.23;;
1747;SDS011;871;47.034;15.394;2023-11-21T04:02:54;38.17;;;1.40;;
1747;SDS011;871;47.034;15.394;2023-11-21T04:05:20;38.50;;;1.60;;
1747;SDS011;871;47.034;15.394;2023-11-21T04:07:48;37.60;;;1.15;;
1747;SDS011;871;47.034;15.394;2023-11-21T04:10:15;38.07;;;1.30;;
1747;SDS011;871;47.034;15.394;2023-11-21T04:12:42;37.87;;;1.10;;
1747;SDS011;871;47.034;15.394;2023-11-21T04:15:08;38.07;;;1.20;;
1747;SDS011;871;47.034;15.394;2023-11-21T04:17:34;38.13;;;1.60;;
1747;SDS011;871;47.034;15.394;2023-11-21T04:20:02;37.77;;;1.10;;
1747;SDS011;871;47.034;15.394;2023-11-21T04:22:28;38.17;;;1.57;;
1747;SDS011;871;47.034;15.394;2023-11-21T04:24:54;37.97;;;1.20;;
1747;SDS011;871;47.034;15.394;2023-11-21T04:27:20;38.33;;;2.00;;
1747;SDS011;871;47.034;15.394;2023-11-21T04:29:47;38.00;;;1.13;;
1747;SDS011;871;47.034;15.394;2023-11-21T04:32:13;38.13;;;1.60;;
1747;SDS011;871;47.034;15.394;2023-11-21T04:34:39;37.73;;;1.40;;
1747;SDS011;871;47.034;15.394;2023-11-21T04:37:06;38.07;;;1.77;;
1747;SDS011;871;47.034;15.394;2023-11-21T04:39:32;37.17;;;1.37;;
1747;SDS011;871;47.034;15.394;2023-11-21T04:41:58;37.23;;;1.30;;
1747;SDS011;871;47.034;15.394;2023-11-21T04:44:24;37.10;;;1.10;;
1747;SDS011;871;47.034;15.394;2023-11-21T04:46:51;37.77;;;1.93;;
1747;SDS011;871;47.034;15.394;2023-11-21T04:49:17;37.03;;;1.60;;
1747;SDS011;871;47.034;15.394;2023-11-21T04:51:43;37.57;;;1.70;;
1747;SDS011;871;47.034;15.394;2023-11-21T04:54:09;37.13;;;1.30;;
1747;SDS011;871;47.034;15.394;2023-11-21T04:56:37;37.23;;;1.40;;
1747;SDS011;871;47.034;15.394;2023-11-21T04:59:03;37.63;;;1.30;;
1747;SDS011;871;47.034;15.394;2023-11-21T05:01:29;37.50;;;1.10;;
1747;SDS011;871;47.034;15.394;2023-11-21T05:03:55;41.17;;;1.43;;
1747;SDS011;871;47.034;15.394;2023-11-21T05:06:22;37.00;;;1.30;;
1747;SDS011;871;47.034;15.394;2023-11-21T05:08:49;37.40;;;1.60;;
1747;SDS011;871;47.034;15.394;2023-11-21T05:11:27;37.43;;;2.47;;
1747;SDS011;871;47.034;15.394;2023-11-21T05:13:54;39.60;;;1.80;;
1747;SDS011;871;47.034;15.394;2023-11-21T05:16:25;36.13;;;1.70;;
1747;SDS011;871;47.034;15.394;2023-11-21T05:18:52;35.20;;;1.20;;
1747;SDS011;871;47.034;15.394;2023-11-21T05:21:21;35.83;;;1.30;;
1747;SDS011;871;47.034;15.394;2023-11-21T05:23:47;35.87;;;1.20;;
1747;SDS011;871;47.034;15.394;2023-11-21T05:26:13;36.47;;;1.30;;
1747;SDS011;871;47.034;15.394;2023-11-21T05:28:39;36.70;;;1.77;;
1747;SDS011;871;47.034;15.394;2023-11-21T05:31:05;36.70;;;1.60;;
1747;SDS011;871;47.034;15.394;2023-11-21T05:33:31;36.60;;;1.30;;
1747;SDS011;871;47.034;15.394;2023-11-21T05:35:58;36.73;;;1.10;;
1747;SDS011;871;47.034;15.394;2023-11-21T05:38:24;36.33;;;1.40;;
1747;SDS011;871;47.034;15.394;2023-11-21T05:40:51;36.75;;;1.40;;
1747;SDS011;871;47.034;15.394;2023-11-21T05:43:17;36.57;;;1.40;;
1747;SDS011;871;47.034;15.394;2023-11-21T05:45:42;37.50;;;1.80;;
1747;SDS011;871;47.034;15.394;2023-11-21T05:48:09;36.83;;;1.50;;
1747;SDS011;871;47.034;15.394;2023-11-21T05:50:35;37.40;;;1.50;;
1747;SDS011;871;47.034;15.394;2023-11-21T05:53:02;37.67;;;1.67;;
1747;SDS011;871;47.034;15.394;2023-11-21T05:55:29;38.50;;;1.83;;
1747;SDS011;871;47.034;15.394;2023-11-21T05:57:55;37.70;;;1.40;;
1747;SDS011;871;47.034;15.394;2023-11-21T06:00:21;37.47;;;1.30;;
1747;SDS011;871;47.034;15.394;2023-11-21T06:02:47;37.63;;;1.57;;
1747;SDS011;871;47.034;15.394;2023-11-21T06:05:16;37.77;;;1.60;;
1747;SDS011;871;47.034;15.394;2023-11-21T06:07:43;37.63;;;1.10;;
1747;SDS011;871;47.034;15.394;2023-11-21T06:10:10;37.77;;;1.27;;
1747;SDS011;871;47.034;15.394;2023-11-21T06:12:37;41.33;;;3.70;;
1747;SDS011;871;47.034;15.394;2023-11-21T06:15:05;37.93;;;1.27;;
1747;SDS011;871;47.034;15.394;2023-11-21T06:17:34;37.43;;;1.20;;
1747;SDS011;871;47.034;15.394;2023-11-21T06:20:04;37.63;;;1.37;;
1747;SDS011;871;47.034;15.394;2023-11-21T06:22:37;37.17;;;1.20;;
1747;SDS011;871;47.034;15.394;2023-11-21T06:25:03;36.53;;;1.20;;
1747;SDS011;871;47.034;15.394;2023-11-21T06:27:31;36.27;;;1.90;;
1747;SDS011;871;47.034;15.394;2023-11-21T06:29:58;36.27;;;1.40;;
1747;SDS011;871;47.034;15.394;2023-11-21T06:32:24;36.00;;;2.23;;
1747;SDS011;871;47.034;15.394;2023-11-21T06:34:51;36.37;;;1.40;;
1747;SDS011;871;47.034;15.394;2023-11-21T06:37:19;37.17;;;2.00;;
1747;SDS011;871;47.034;15.394;2023-11-21T06:39:49;36.83;;;1.30;;
1747;SDS011;871;47.034;15.394;2023-11-21T06:42:17;36.97;;;1.20;;
1747;SDS011;871;47.034;15.394;2023-11-21T06:44:44;36.80;;;1.23;;
1747;SDS011;871;47.034;15.394;2023-11-21T06:47:10;36.97;;;1.23;;
1747;SDS011;871;47.034;15.394;2023-11-21T06:49:36;36.20;;;1.20;;
1747;SDS011;871;47.034;15.394;2023-11-21T06:52:03;36.13;;;1.30;;
1747;SDS011;871;47.034;15.394;2023-11-21T06:54:30;36.70;;;1.60;;
1747;SDS011;871;47.034;15.394;2023-11-21T06:56:57;35.87;;;1.50;;
1747;SDS011;871;47.034;15.394;2023-11-21T06:59:23;36.13;;;1.40;;
1747;SDS011;871;47.034;15.394;2023-11-21T07:01:50;36.53;;;1.53;;
1747;SDS011;871;47.034;15.394;2023-11-21T07:04:16;36.53;;;1.20;;
1747;SDS011;871;47.034;15.394;2023-11-21T07:06:43;36.70;;;1.60;;
1747;SDS011;871;47.034;15.394;2023-11-21T07:09:09;36.67;;;1.77;;
1747;SDS011;871;47.034;15.394;2023-11-21T07:11:36;36.40;;;1.30;;
1747;SDS011;871;47.034;15.394;2023-11-21T07:14:06;36.50;;;1.40;;
1747;SDS011;871;47.034;15.394;2023-11-21T07:16:34;35.73;;;1.30;;
1747;SDS011;871;47.034;15.394;2023-11-21T07:19:02;35.77;;;1.40;;
1747;SDS011;871;47.034;15.394;2023-11-21T07:21:31;35.97;;;1.20;;
1747;SDS011;871;47.034;15.394;2023-11-21T07:23:57;36.70;;;2.27;;
1747;SDS011;871;47.034;15.394;2023-11-21T07:26:23;36.53;;;2.20;;
1747;SDS011;871;47.034;15.394;2023-11-21T07:28:50;37.37;;;2.33;;
1747;SDS011;871;47.034;15.394;2023-11-21T07:31:16;36.77;;;1.50;;
1747;SDS011;871;47.034;15.394;2023-11-21T07:33:42;37.03;;;1.70;;
1747;SDS011;871;47.034;15.394;2023-11-21T07:36:08;38.40;;;2.07;;
1747;SDS011;871;47.034;15.394;2023-11-21T07:38:35;37.93;;;1.67;;
1747;SDS011;871;47.034;15.394;2023-11-21T07:41:01;37.73;;;1.50;;
1747;SDS011;871;47.034;15.394;2023-11-21T07:43:27;37.87;;;1.93;;
1747;SDS011;871;47.034;15.394;2023-11-21T07:45:59;38.07;;;1.50;;
1747;SDS011;871;47.034;15.394;2023-11-21T07:48:27;38.03;;;1.30;;
1747;SDS011;871;47.034;15.394;2023-11-21T07:50:53;38.37;;;1.40;;
1747;SDS011;871;47.034;15.394;2023-11-21T07:53:19;38.23;;;1.17;;
1747;SDS011;871;47.034;15.394;2023-11-21T07:55:45;38.40;;;1.00;;
1747;SDS011;871;47.034;15.394;2023-11-21T07:58:12;38.27;;;1.87;;
1747;SDS011;871;47.034;15.394;2023-11-21T08:00:38;38.50;;;1.50;;
1747;SDS011;871;47.034;15.394;2023-11-21T08:03:04;37.87;;;1.40;;
1747;SDS011;871;47.034;15.394;2023-11-21T08:05:31;44.60;;;1.60;;
1747;SDS011;871;47.034;15.394;2023-11-21T08:07:57;38.17;;;1.00;;
1747;SDS011;871;47.034;15.394;2023-11-21T08:10:23;37.77;;;1.10;;
1747;SDS011;871;47.034;15.394;2023-11-21T08:12:50;38.07;;;1.27;;
1747;SDS011;871;47.034;15.394;2023-11-21T08:15:16;38.37;;;1.50;;
1747;SDS011;871;47.034;15.394;2023-11-21T08:17:42;38.20;;;1.20;;
1747;SDS011;871;47.034;15.394;2023-11-21T08:20:08;38.47;;;1.10;;
1747;SDS011;871;47.034;15.394;2023-11-21T08:22:36;38.23;;;1.30;;
1747;SDS011;871;47.034;15.394;2023-11-21T08:25:02;38.27;;;1.10;;
1747;SDS011;871;47.034;15.394;2023-11-21T08:27:31;38.07;;;1.33;;
1747;SDS011;871;47.034;15.394;2023-11-21T08:29:57;37.90;;;1.40;;
1747;SDS011;871;47.034;15.394;2023-11-21T08:32:23;37.93;;;1.70;;
1747;SDS011;871;47.034;15.394;2023-11-21T08:34:50;37.70;;;1.10;;
1747;SDS011;871;47.034;15.394;2023-11-21T08:37:16;37.60;;;1.40;;
1747;SDS011;871;47.034;15.394;2023-11-21T08:39:45;37.53;;;1.93;;
1747;SDS011;871;47.034;15.394;2023-11-21T08:42:13;37.83;;;1.50;;
1747;SDS011;871;47.034;15.394;2023-11-21T08:44:39;37.97;;;1.30;;
1747;SDS011;871;47.034;15.394;2023-11-21T08:47:05;38.43;;;1.50;;
1747;SDS011;871;47.034;15.394;2023-11-21T08:49:31;38.30;;;1.10;;
1747;SDS011;871;47.034;15.394;2023-11-21T08:51:58;39.90;;;1.87;;
1747;SDS011;871;47.034;15.394;2023-11-21T08:54:25;40.00;;;3.40;;
1747;SDS011;871;47.034;15.394;2023-11-21T08:56:51;39.13;;;1.20;;
1747;SDS011;871;47.034;15.394;2023-11-21T08:59:17;39.33;;;1.30;;
1747;SDS011;871;47.034;15.394;2023-11-21T09:01:45;39.47;;;1.90;;
1747;SDS011;871;47.034;15.394;2023-11-21T09:04:11;39.10;;;1.40;;
1747;SDS011;871;47.034;15.394;2023-11-21T09:06:38;39.17;;;1.37;;
1747;SDS011;871;47.034;15.394;2023-11-21T09:09:04;39.00;;;1.10;;
1747;SDS011;871;47.034;15.394;2023-11-21T09:11:31;39.00;;;1.30;;
1747;SDS011;871;47.034;15.394;2023-11-21T09:13:59;39.63;;;1.30;;
1747;SDS011;871;47.034;15.394;2023-11-21T09:16:25;39.67;;;1.60;;
1747;SDS011;871;47.034;15.394;2023-11-21T09:18:51;40.30;;;1.93;;
1747;SDS011;871;47.034;15.394;2023-11-21T09:21:17;39.47;;;1.20;;
1747;SDS011;871;47.034;15.394;2023-11-21T09:23:47;39.67;;;1.20;;
1747;SDS011;871;47.034;15.394;2023-11-21T09:26:13;39.47;;;1.10;;
1747;SDS011;871;47.034;15.394;2023-11-21T09:28:41;39.83;;;1.70;;
1747;SDS011;871;47.034;15.394;2023-11-21T09:31:11;40.80;;;1.83;;
1747;SDS011;871;47.034;15.394;2023-11-21T09:33:37;39.73;;;1.33;;
1747;SDS011;871;47.034;15.394;2023-11-21T09:36:04;39.87;;;1.50;;
1747;SDS011;871;47.034;15.394;2023-11-21T09:38:30;39.87;;;1.47;;
1747;SDS011;871;47.034;15.394;2023-11-21T09:40:56;40.10;;;1.47;;
1747;SDS011;871;47.034;15.394;2023-11-21T09:43:23;40.00;;;1.53;;
1747;SDS011;871;47.034;15.394;2023-11-21T09:45:56;40.90;;;1.50;;
1747;SDS011;871;47.034;15.394;2023-11-21T09:48:22;40.17;;;1.20;;
1747;SDS011;871;47.034;15.394;2023-11-21T09:50:50;39.97;;;1.60;;
1747;SDS011;871;47.034;15.394;2023-11-21T09:55:44;41.67;;;2.33;;
1747;SDS011;871;47.034;15.394;2023-11-21T09:58:10;40.63;;;1.20;;
1747;SDS011;871;47.034;15.394;2023-11-21T10:00:43;40.17;;;1.53;;
1747;SDS011;871;47.034;15.394;2023-11-21T10:03:09;40.17;;;1.23;;
1747;SDS011;871;47.034;15.394;2023-11-21T10:05:36;39.87;;;1.23;;
1747;SDS011;871;47.034;15.394;2023-11-21T10:08:04;39.37;;;1.30;;
1747;SDS011;871;47.034;15.394;2023-11-21T10:10:31;39.83;;;1.73;;
1747;SDS011;871;47.034;15.394;2023-11-21T10:13:00;39.57;;;1.00;;
1747;SDS011;871;47.034;15.394;2023-11-21T10:15:27;39.67;;;1.70;;
1747;SDS011;871;47.034;15.394;2023-11-21T10:17:54;39.40;;;1.53;;
1747;SDS011;871;47.034;15.394;2023-11-21T10:20:21;39.70;;;1.57;;
1747;SDS011;871;47.034;15.394;2023-11-21T10:22:49;39.47;;;1.40;;
1747;SDS011;871;47.034;15.394;2023-11-21T10:25:15;39.67;;;1.40;;
1747;SDS011;871;47.034;15.394;2023-11-21T10:27:43;39.33;;;1.17;;
1747;SDS011;871;47.034;15.394;2023-11-21T10:30:12;39.47;;;1.70;;
1747;SDS011;871;47.034;15.394;2023-11-21T10:32:41;40.10;;;1.73;;
1747;SDS011;871;47.034;15.394;2023-11-21T10:35:08;39.10;;;1.30;;
1747;SDS011;871;47.034;15.394;2023-11-21T10:37:40;39.43;;;1.17;;
1747;SDS011;871;47.034;15.394;2023-11-21T10:40:06;39.00;;;1.00;;
1747;SDS011;871;47.034;15.394;2023-11-21T10:42:33;39.53;;;1.43;;
1747;SDS011;871;47.034;15.394;2023-11-21T10:44:59;39.53;;;1.10;;
1747;SDS011;871;47.034;15.394;2023-11-21T10:47:25;39.37;;;1.40;;
1747;SDS011;871;47.034;15.394;2023-11-21T10:49:52;39.63;;;1.30;;
1747;SDS011;871;47.034;15.394;2023-11-21T10:52:21;39.60;;;1.17;;
1747;SDS011;871;47.034;15.394;2023-11-21T10:54:47;39.57;;;1.30;;
1747;SDS011;871;47.034;15.394;2023-11-21T10:57:17;39.47;;;1.20;;
1747;SDS011;871;47.034;15.394;2023-11-21T10:59:44;40.00;;;1.30;;
1747;SDS011;871;47.034;15.394;2023-11-21T11:02:21;39.37;;;1.10;;
1747;SDS011;871;47.034;15.394;2023-11-21T11:04:50;39.80;;;1.50;;
1747;SDS011;871;47.034;15.394;2023-11-21T11:07:17;39.47;;;1.27;;
1747;SDS011;871;47.034;15.394;2023-11-21T11:09:43;39.77;;;1.60;;
1747;SDS011;871;47.034;15.394;2023-11-21T11:12:10;39.73;;;1.50;;
1747;SDS011;871;47.034;15.394;2023-11-21T11:14:38;39.57;;;1.10;;
1747;SDS011;871;47.034;15.394;2023-11-21T11:17:06;39.60;;;1.70;;
1747;SDS011;871;47.034;15.394;2023-11-21T11:19:34;39.87;;;1.97;;
1747;SDS011;871;47.034;15.394;2023-11-21T11:24:53;40.03;;;1.43;;
1747;SDS011;871;47.034;15.394;2023-11-21T11:35:34;39.67;;;1.13;;
1747;SDS011;871;47.034;15.394;2023-11-21T11:38:03;39.23;;;1.20;;
1747;SDS011;871;47.034;15.394;2023-11-21T11:40:45;39.23;;;1.30;;
1747;SDS011;871;47.034;15.394;2023-11-21T11:43:11;39.87;;;1.63;;
1747;SDS011;871;47.034;15.394;2023-11-21T11:45:37;39.60;;;1.73;;
1747;SDS011;871;47.034;15.394;2023-11-21T11:48:07;39.57;;;1.10;;
1747;SDS011;871;47.034;15.394;2023-11-21T11:50:33;39.10;;;1.00;;
1747;SDS011;871;47.034;15.394;2023-11-21T11:53:12;39.60;;;1.20;;
1747;SDS011;871;47.034;15.394;2023-11-21T11:55:38;39.63;;;1.40;;
1747;SDS011;871;47.034;15.394;2023-11-21T11:58:05;39.97;;;1.77;;
1747;SDS011;871;47.034;15.394;2023-11-21T12:03:00;39.80;;;1.30;;
1747;SDS011;871;47.034;15.394;2023-11-21T12:05:32;39.53;;;1.00;;
1747;SDS011;871;47.034;15.394;2023-11-21T12:08:04;39.53;;;1.00;;
1747;SDS011;871;47.034;15.394;2023-11-21T12:10:32;39.70;;;1.13;;
1747;SDS011;871;47.034;15.394;2023-11-21T12:12:59;39.77;;;1.23;;
1747;SDS011;871;47.034;15.394;2023-11-21T12:15:26;40.20;;;1.67;;
1747;SDS011;871;47.034;15.394;2023-11-21T12:17:56;40.33;;;1.80;;
1747;SDS011;871;47.034;15.394;2023-11-21T12:20:23;39.77;;;1.10;;
1747;SDS011;871;47.034;15.394;2023-11-21T12:22:50;39.40;;;1.40;;
1747;SDS011;871;47.034;15.394;2023-11-21T12:25:23;41.90;;;2.13;;
1747;SDS011;871;47.034;15.394;2023-11-21T12:27:52;39.67;;;1.07;;
1747;SDS011;871;47.034;15.394;2023-11-21T12:30:19;39.40;;;1.07;;
1747;SDS011;871;47.034;15.394;2023-11-21T12:32:50;39.33;;;1.10;;
1747;SDS011;871;47.034;15.394;2023-11-21T12:35:17;40.70;;;1.80;;
1747;SDS011;871;47.034;15.394;2023-11-21T12:37:45;40.20;;;1.47;;
1747;SDS011;871;47.034;15.394;2023-11-21T12:40:12;39.93;;;1.07;;
1747;SDS011;871;47.034;15.394;2023-11-21T12:42:42;40.17;;;1.50;;
1747;SDS011;871;47.034;15.394;2023-11-21T12:47:43;40.17;;;1.20;;
1747;SDS011;871;47.034;15.394;2023-11-21T12:50:18;40.27;;;1.10;;
1747;SDS011;871;47.034;15.394;2023-11-21T12:52:48;40.53;;;1.90;;
1747;SDS011;871;47.034;15.394;2023-11-21T12:55:18;40.33;;;1.10;;
1747;SDS011;871;47.034;15.394;2023-11-21T12:57:47;40.07;;;1.43;;
1747;SDS011;871;47.034;15.394;2023-11-21T13:00:16;40.17;;;1.10;;
1747;SDS011;871;47.034;15.394;2023-11-21T13:02:52;40.10;;;1.23;;
1747;SDS011;871;47.034;15.394;2023-11-21T13:05:28;40.80;;;1.20;;
1747;SDS011;871;47.034;15.394;2023-11-21T13:07:55;40.17;;;1.00;;
1747;SDS011;871;47.034;15.394;2023-11-21T13:10:23;40.27;;;1.20;;
1747;SDS011;871;47.034;15.394;2023-11-21T13:12:51;40.53;;;2.10;;
1747;SDS011;871;47.034;15.394;2023-11-21T13:15:18;40.20;;;1.47;;
1747;SDS011;871;47.034;15.394;2023-11-21T13:17:44;39.77;;;1.20;;
1747;SDS011;871;47.034;15.394;2023-11-21T13:20:11;42.10;;;3.00;;
1747;SDS011;871;47.034;15.394;2023-11-21T13:22:50;40.07;;;1.10;;
1747;SDS011;871;47.034;15.394;2023-11-21T13:25:22;39.77;;;1.17;;
1747;SDS011;871;47.034;15.394;2023-11-21T13:27:48;40.60;;;2.10;;
1747;SDS011;871;47.034;15.394;2023-11-21T13:30:14;40.67;;;1.53;;
1747;SDS011;871;47.034;15.394;2023-11-21T13:32:42;39.97;;;1.20;;
1747;SDS011;871;47.034;15.394;2023-11-21T13:35:08;39.87;;;1.60;;
1747;SDS011;871;47.034;15.394;2023-11-21T13:37:40;40.07;;;1.40;;
1747;SDS011;871;47.034;15.394;2023-11-21T13:40:07;39.83;;;1.30;;
1747;SDS011;871;47.034;15.394;2023-11-21T13:42:40;39.67;;;1.27;;
1747;SDS011;871;47.034;15.394;2023-11-21T13:45:06;39.87;;;1.13;;
1747;SDS011;871;47.034;15.394;2023-11-21T13:47:32;40.20;;;1.67;;
1747;SDS011;871;47.034;15.394;2023-11-21T13:50:00;39.83;;;1.17;;
1747;SDS011;871;47.034;15.394;2023-11-21T13:52:26;40.80;;;2.17;;
1747;SDS011;871;47.034;15.394;2023-11-21T13:54:53;39.60;;;1.17;;
1747;SDS011;871;47.034;15.394;2023-11-21T13:57:19;39.53;;;1.27;;
1747;SDS011;871;47.034;15.394;2023-11-21T13:59:46;39.93;;;1.40;;
1747;SDS011;871;47.034;15.394;2023-11-21T14:02:12;39.90;;;1.37;;
1747;SDS011;871;47.034;15.394;2023-11-21T14:04:43;39.40;;;1.00;;
1747;SDS011;871;47.034;15.394;2023-11-21T14:07:20;39.87;;;1.20;;
1747;SDS011;871;47.034;15.394;2023-11-21T14:10:02;39.87;;;1.20;;
1747;SDS011;871;47.034;15.394;2023-11-21T14:12:28;39.87;;;1.43;;
1747;SDS011;871;47.034;15.394;2023-11-21T14:14:59;40.10;;;1.57;;
1747;SDS011;871;47.034;15.394;2023-11-21T14:17:25;39.77;;;1.60;;
1747;SDS011;871;47.034;15.394;2023-11-21T14:19:52;39.97;;;1.40;;
1747;SDS011;871;47.034;15.394;2023-11-21T14:22:20;39.77;;;1.17;;
1747;SDS011;871;47.034;15.394;2023-11-21T14:24:47;40.40;;;1.77;;
1747;SDS011;871;47.034;15.394;2023-11-21T14:27:15;41.43;;;1.67;;
1747;SDS011;871;47.034;15.394;2023-11-21T14:29:41;40.57;;;1.90;;
1747;SDS011;871;47.034;15.394;2023-11-21T14:32:09;39.57;;;1.47;;
1747;SDS011;871;47.034;15.394;2023-11-21T14:34:36;39.50;;;1.17;;
1747;SDS011;871;47.034;15.394;2023-11-21T14:37:03;39.67;;;1.40;;
1747;SDS011;871;47.034;15.394;2023-11-21T14:39:29;39.77;;;2.00;;
1747;SDS011;871;47.034;15.394;2023-11-21T14:41:57;39.87;;;1.37;;
1747;SDS011;871;47.034;15.394;2023-11-21T14:44:24;39.57;;;1.20;;
1747;SDS011;871;47.034;15.394;2023-11-21T14:46:52;39.67;;;1.40;;
1747;SDS011;871;47.034;15.394;2023-11-21T14:49:20;39.57;;;1.60;;
1747;SDS011;871;47.034;15.394;2023-11-21T14:51:50;40.30;;;1.83;;
1747;SDS011;871;47.034;15.394;2023-11-21T14:54:23;39.33;;;1.70;;
1747;SDS011;871;47.034;15.394;2023-11-21T14:57:04;40.17;;;2.70;;
1747;SDS011;871;47.034;15.394;2023-11-21T14:59:36;38.63;;;1.20;;
1747;SDS011;871;47.034;15.394;2023-11-21T15:02:03;38.57;;;1.37;;
1747;SDS011;871;47.034;15.394;2023-11-21T15:04:45;38.60;;;1.13;;
1747;SDS011;871;47.034;15.394;2023-11-21T15:07:12;38.77;;;1.10;;
1747;SDS011;871;47.034;15.394;2023-11-21T15:09:38;38.97;;;1.20;;
1747;SDS011;871;47.034;15.394;2023-11-21T15:12:08;39.80;;;1.87;;
1747;SDS011;871;47.034;15.394;2023-11-21T15:14:44;39.30;;;1.40;;
1747;SDS011;871;47.034;15.394;2023-11-21T15:17:11;39.03;;;1.10;;
1747;SDS011;871;47.034;15.394;2023-11-21T15:19:43;38.77;;;1.47;;